sensor_id;sensor_type;location;lat;lon;timestamp;temperature;humidity
54788;DHT22;59598;48.112;16.280;2023-06-14T00:00:42;12.40;99.90
54788;DHT22;59598;48.112;16.280;2023-06-14T00:03:18;12.40;99.90
54788;DHT22;59598;48.112;16.280;2023-06-14T00:05:50;12.40;99.90
54788;DHT22;59598;48.112;16.280;2023-06-14T00:08:22;12.40;99.90
54788;DHT22;59598;48.112;16.280;2023-06-14T00:11:01;12.30;99.90
54788;DHT22;59598;48.112;16.280;2023-06-14T00:13:37;12.30;78.00
54788;DHT22;59598;48.112;16.280;2023-06-14T00:16:09;12.30;99.90
54788;DHT22;59598;48.112;16.280;2023-06-14T00:18:43;12.30;14.50
54788;DHT22;59598;48.112;16.280;2023-06-14T00:21:18;12.30;99.90
54788;DHT22;59598;48.112;16.280;2023-06-14T00:23:52;12.30;99.90
54788;DHT22;59598;48.112;16.280;2023-06-14T00:26:23;12.40;99.90
54788;DHT22;59598;48.112;16.280;2023-06-14T00:28:57;12.40;99.90
54788;DHT22;59598;48.112;16.280;2023-06-14T00:31:28;12.40;99.90
54788;DHT22;59598;48.112;16.280;2023-06-14T00:34:02;12.40;99.90
54788;DHT22;59598;48.112;16.280;2023-06-14T00:36:34;12.30;99.90
54788;DHT22;59598;48.112;16.280;2023-06-14T00:39:08;12.30;99.90
54788;DHT22;59598;48.112;16.280;2023-06-14T00:41:43;12.30;99.90
54788;DHT22;59598;48.112;16.280;2023-06-14T00:44:17;12.30;99.90
54788;DHT22;59598;48.112;16.280;2023-06-14T00:46:51;12.30;99.90
54788;DHT22;59598;48.112;16.280;2023-06-14T00:49:30;12.30;99.90
54788;DHT22;59598;48.112;16.280;2023-06-14T00:52:02;12.30;99.90
54788;DHT22;59598;48.112;16.280;2023-06-14T00:54:34;12.30;99.90
54788;DHT22;59598;48.112;16.280;2023-06-14T00:57:09;12.30;99.90
54788;DHT22;59598;48.112;16.280;2023-06-14T00:59:48;12.30;99.90
54788;DHT22;59598;48.112;16.280;2023-06-14T01:02:23;12.40;99.90
54788;DHT22;59598;48.112;16.280;2023-06-14T01:04:55;12.50;99.90
54788;DHT22;59598;48.112;16.280;2023-06-14T01:13:27;12.70;15.90
54788;DHT22;59598;48.112;16.280;2023-06-14T01:16:00;12.70;1.00
54788;DHT22;59598;48.112;16.280;2023-06-14T01:18:32;12.70;1.00
54788;DHT22;59598;48.112;16.280;2023-06-14T01:21:19;12.80;1.00
54788;DHT22;59598;48.112;16.280;2023-06-14T01:23:54;12.80;1.00
54788;DHT22;59598;48.112;16.280;2023-06-14T01:26:25;12.80;1.00
54788;DHT22;59598;48.112;16.280;2023-06-14T01:29:00;12.80;16.40
54788;DHT22;59598;48.112;16.280;2023-06-14T01:31:32;12.80;44.90
54788;DHT22;59598;48.112;16.280;2023-06-14T01:34:14;12.90;18.80
54788;DHT22;59598;48.112;16.280;2023-06-14T01:36:46;12.90;59.50
54788;DHT22;59598;48.112;16.280;2023-06-14T01:39:25;12.90;53.60
54788;DHT22;59598;48.112;16.280;2023-06-14T01:42:00;12.90;1.00
54788;DHT22;59598;48.112;16.280;2023-06-14T01:44:32;13.00;1.00
54788;DHT22;59598;48.112;16.280;2023-06-14T01:47:09;13.00;23.00
54788;DHT22;59598;48.112;16.280;2023-06-14T01:49:41;13.00;87.90
54788;DHT22;59598;48.112;16.280;2023-06-14T01:52:13;13.00;98.00
54788;DHT22;59598;48.112;16.280;2023-06-14T01:54:47;13.00;99.90
54788;DHT22;59598;48.112;16.280;2023-06-14T01:57:21;13.00;99.90
54788;DHT22;59598;48.112;16.280;2023-06-14T01:59:54;13.10;78.60
54788;DHT22;59598;48.112;16.280;2023-06-14T02:02:25;13.10;3.50
54788;DHT22;59598;48.112;16.280;2023-06-14T02:04:57;13.20;37.60
54788;DHT22;59598;48.112;16.280;2023-06-14T02:07:29;13.20;47.90
54788;DHT22;59598;48.112;16.280;2023-06-14T02:10:03;13.20;14.90
54788;DHT22;59598;48.112;16.280;2023-06-14T02:12:36;13.20;1.00
54788;DHT22;59598;48.112;16.280;2023-06-14T02:15:10;13.30;1.00
54788;DHT22;59598;48.112;16.280;2023-06-14T02:17:48;13.30;1.00
54788;DHT22;59598;48.112;16.280;2023-06-14T02:20:20;13.30;1.00
54788;DHT22;59598;48.112;16.280;2023-06-14T02:22:53;13.40;1.00
54788;DHT22;59598;48.112;16.280;2023-06-14T02:25:25;13.50;1.00
54788;DHT22;59598;48.112;16.280;2023-06-14T02:28:00;13.50;1.00
54788;DHT22;59598;48.112;16.280;2023-06-14T02:30:32;13.60;1.00
54788;DHT22;59598;48.112;16.280;2023-06-14T02:33:04;13.60;1.00
54788;DHT22;59598;48.112;16.280;2023-06-14T02:35:35;13.60;1.00
54788;DHT22;59598;48.112;16.280;2023-06-14T02:38:11;13.60;1.00
54788;DHT22;59598;48.112;16.280;2023-06-14T02:40:42;13.60;1.00
54788;DHT22;59598;48.112;16.280;2023-06-14T02:43:16;13.60;1.00
54788;DHT22;59598;48.112;16.280;2023-06-14T02:45:48;13.60;1.00
54788;DHT22;59598;48.112;16.280;2023-06-14T02:48:22;13.60;1.00
54788;DHT22;59598;48.112;16.280;2023-06-14T02:50:54;13.50;1.00
54788;DHT22;59598;48.112;16.280;2023-06-14T02:53:27;13.50;1.00
54788;DHT22;59598;48.112;16.280;2023-06-14T02:55:59;13.40;1.00
54788;DHT22;59598;48.112;16.280;2023-06-14T02:58:36;13.30;1.00
54788;DHT22;59598;48.112;16.280;2023-06-14T03:01:08;13.30;8.50
54788;DHT22;59598;48.112;16.280;2023-06-14T03:03:41;13.20;6.10
54788;DHT22;59598;48.112;16.280;2023-06-14T03:06:14;13.20;1.00
54788;DHT22;59598;48.112;16.280;2023-06-14T03:08:48;13.10;99.90
54788;DHT22;59598;48.112;16.280;2023-06-14T03:11:29;13.00;99.90
54788;DHT22;59598;48.112;16.280;2023-06-14T03:14:02;12.90;99.90
54788;DHT22;59598;48.112;16.280;2023-06-14T03:16:41;12.70;99.90
54788;DHT22;59598;48.112;16.280;2023-06-14T03:19:14;12.70;1.00
54788;DHT22;59598;48.112;16.280;2023-06-14T03:21:45;12.70;99.90
54788;DHT22;59598;48.112;16.280;2023-06-14T03:24:19;12.70;99.90
54788;DHT22;59598;48.112;16.280;2023-06-14T03:26:51;12.70;99.90
54788;DHT22;59598;48.112;16.280;2023-06-14T03:29:25;12.70;1.00
54788;DHT22;59598;48.112;16.280;2023-06-14T03:32:01;12.60;1.00
54788;DHT22;59598;48.112;16.280;2023-06-14T03:34:34;12.50;1.00
54788;DHT22;59598;48.112;16.280;2023-06-14T03:37:08;12.30;1.00
54788;DHT22;59598;48.112;16.280;2023-06-14T03:39:42;12.30;1.00
54788;DHT22;59598;48.112;16.280;2023-06-14T03:42:17;12.20;1.00
54788;DHT22;59598;48.112;16.280;2023-06-14T03:44:49;12.20;1.00
54788;DHT22;59598;48.112;16.280;2023-06-14T03:47:23;12.10;1.00
54788;DHT22;59598;48.112;16.280;2023-06-14T03:49:55;12.20;1.00
54788;DHT22;59598;48.112;16.280;2023-06-14T03:52:29;12.30;1.00
54788;DHT22;59598;48.112;16.280;2023-06-14T03:55:05;12.60;1.00
54788;DHT22;59598;48.112;16.280;2023-06-14T03:57:40;12.70;1.00
54788;DHT22;59598;48.112;16.280;2023-06-14T04:00:14;13.00;1.00
54788;DHT22;59598;48.112;16.280;2023-06-14T04:02:51;13.20;99.90
54788;DHT22;59598;48.112;16.280;2023-06-14T04:05:23;13.20;99.90
54788;DHT22;59598;48.112;16.280;2023-06-14T04:07:57;13.30;99.90
54788;DHT22;59598;48.112;16.280;2023-06-14T04:10:32;13.50;99.90
54788;DHT22;59598;48.112;16.280;2023-06-14T04:13:04;13.80;99.90
54788;DHT22;59598;48.112;16.280;2023-06-14T04:15:38;14.20;1.00
54788;DHT22;59598;48.112;16.280;2023-06-14T04:18:15;14.50;1.00
54788;DHT22;59598;48.112;16.280;2023-06-14T04:20:46;14.80;1.00
54788;DHT22;59598;48.112;16.280;2023-06-14T04:23:18;15.10;1.00
54788;DHT22;59598;48.112;16.280;2023-06-14T04:25:49;15.30;99.90
54788;DHT22;59598;48.112;16.280;2023-06-14T04:28:21;15.40;99.90
54788;DHT22;59598;48.112;16.280;2023-06-14T04:30:57;15.60;99.90
54788;DHT22;59598;48.112;16.280;2023-06-14T04:33:35;15.60;1.00
54788;DHT22;59598;48.112;16.280;2023-06-14T04:36:14;15.90;1.00
54788;DHT22;59598;48.112;16.280;2023-06-14T04:38:48;16.20;1.00
54788;DHT22;59598;48.112;16.280;2023-06-14T04:41:21;16.70;1.00
54788;DHT22;59598;48.112;16.280;2023-06-14T04:43:53;17.00;99.90
54788;DHT22;59598;48.112;16.280;2023-06-14T04:46:25;17.30;1.00
54788;DHT22;59598;48.112;16.280;2023-06-14T04:49:02;17.00;1.00
54788;DHT22;59598;48.112;16.280;2023-06-14T04:51:34;16.30;1.00
54788;DHT22;59598;48.112;16.280;2023-06-14T04:54:08;16.00;1.00
54788;DHT22;59598;48.112;16.280;2023-06-14T04:56:50;16.10;83.80
54788;DHT22;59598;48.112;16.280;2023-06-14T04:59:24;15.90;99.90
54788;DHT22;59598;48.112;16.280;2023-06-14T05:01:58;15.60;99.90
54788;DHT22;59598;48.112;16.280;2023-06-14T05:04:32;15.60;99.90
54788;DHT22;59598;48.112;16.280;2023-06-14T05:07:06;15.50;99.90
54788;DHT22;59598;48.112;16.280;2023-06-14T05:09:40;15.80;99.90
54788;DHT22;59598;48.112;16.280;2023-06-14T05:12:12;15.70;99.90
54788;DHT22;59598;48.112;16.280;2023-06-14T05:14:52;15.80;99.90
54788;DHT22;59598;48.112;16.280;2023-06-14T05:17:23;16.30;99.90
54788;DHT22;59598;48.112;16.280;2023-06-14T05:19:54;16.90;1.00
54788;DHT22;59598;48.112;16.280;2023-06-14T05:22:27;17.40;1.00
54788;DHT22;59598;48.112;16.280;2023-06-14T05:24:58;17.20;1.00
54788;DHT22;59598;48.112;16.280;2023-06-14T05:27:32;17.20;1.00
54788;DHT22;59598;48.112;16.280;2023-06-14T05:30:06;17.20;1.00
54788;DHT22;59598;48.112;16.280;2023-06-14T05:32:40;17.50;1.00
54788;DHT22;59598;48.112;16.280;2023-06-14T05:35:11;17.70;1.00
54788;DHT22;59598;48.112;16.280;2023-06-14T05:37:45;18.10;99.90
54788;DHT22;59598;48.112;16.280;2023-06-14T05:40:16;18.50;99.90
54788;DHT22;59598;48.112;16.280;2023-06-14T05:42:48;18.30;99.90
54788;DHT22;59598;48.112;16.280;2023-06-14T05:45:25;18.20;99.90
54788;DHT22;59598;48.112;16.280;2023-06-14T05:47:57;18.90;99.90
54788;DHT22;59598;48.112;16.280;2023-06-14T05:50:28;19.50;1.00
54788;DHT22;59598;48.112;16.280;2023-06-14T05:52:59;19.70;99.90
54788;DHT22;59598;48.112;16.280;2023-06-14T05:55:31;19.00;99.90
54788;DHT22;59598;48.112;16.280;2023-06-14T05:58:02;19.40;99.90
54788;DHT22;59598;48.112;16.280;2023-06-14T06:00:36;19.20;99.90
54788;DHT22;59598;48.112;16.280;2023-06-14T06:03:12;19.30;99.90
54788;DHT22;59598;48.112;16.280;2023-06-14T06:05:44;19.60;99.90
54788;DHT22;59598;48.112;16.280;2023-06-14T06:08:16;20.10;1.00
54788;DHT22;59598;48.112;16.280;2023-06-14T06:10:51;20.30;1.00
54788;DHT22;59598;48.112;16.280;2023-06-14T06:13:23;20.50;1.00
54788;DHT22;59598;48.112;16.280;2023-06-14T06:15:54;20.60;1.00
54788;DHT22;59598;48.112;16.280;2023-06-14T06:18:29;20.70;1.00
54788;DHT22;59598;48.112;16.280;2023-06-14T06:21:08;20.90;1.00
54788;DHT22;59598;48.112;16.280;2023-06-14T06:23:42;21.00;1.00
54788;DHT22;59598;48.112;16.280;2023-06-14T06:26:13;21.30;1.00
54788;DHT22;59598;48.112;16.280;2023-06-14T06:28:45;21.80;1.00
54788;DHT22;59598;48.112;16.280;2023-06-14T06:31:18;21.90;1.00
54788;DHT22;59598;48.112;16.280;2023-06-14T06:33:50;22.00;1.00
54788;DHT22;59598;48.112;16.280;2023-06-14T06:36:21;22.40;1.00
54788;DHT22;59598;48.112;16.280;2023-06-14T06:38:52;22.80;99.90
54788;DHT22;59598;48.112;16.280;2023-06-14T06:41:24;22.60;1.00
54788;DHT22;59598;48.112;16.280;2023-06-14T06:43:57;22.70;99.90
54788;DHT22;59598;48.112;16.280;2023-06-14T06:46:32;22.40;99.90
54788;DHT22;59598;48.112;16.280;2023-06-14T06:49:05;22.20;99.90
54788;DHT22;59598;48.112;16.280;2023-06-14T06:51:37;22.20;99.90
54788;DHT22;59598;48.112;16.280;2023-06-14T06:54:11;22.10;99.90
54788;DHT22;59598;48.112;16.280;2023-06-14T06:56:42;22.00;99.90
54788;DHT22;59598;48.112;16.280;2023-06-14T06:59:13;22.10;99.90
54788;DHT22;59598;48.112;16.280;2023-06-14T07:01:50;22.10;99.90
54788;DHT22;59598;48.112;16.280;2023-06-14T07:04:24;22.00;99.90
54788;DHT22;59598;48.112;16.280;2023-06-14T07:07:00;21.70;99.90
54788;DHT22;59598;48.112;16.280;2023-06-14T07:09:33;21.40;99.90
54788;DHT22;59598;48.112;16.280;2023-06-14T07:12:05;21.60;99.90
54788;DHT22;59598;48.112;16.280;2023-06-14T07:14:37;21.60;99.90
54788;DHT22;59598;48.112;16.280;2023-06-14T07:17:12;21.90;99.90
54788;DHT22;59598;48.112;16.280;2023-06-14T07:19:49;22.30;99.90
54788;DHT22;59598;48.112;16.280;2023-06-14T07:22:26;22.10;99.90
54788;DHT22;59598;48.112;16.280;2023-06-14T07:24:58;22.50;99.90
54788;DHT22;59598;48.112;16.280;2023-06-14T07:27:29;22.50;99.90
54788;DHT22;59598;48.112;16.280;2023-06-14T07:30:01;22.20;99.90
54788;DHT22;59598;48.112;16.280;2023-06-14T07:32:36;22.60;99.90
54788;DHT22;59598;48.112;16.280;2023-06-14T07:35:08;23.60;99.90
54788;DHT22;59598;48.112;16.280;2023-06-14T07:37:39;24.30;99.90
54788;DHT22;59598;48.112;16.280;2023-06-14T07:40:14;24.20;99.90
54788;DHT22;59598;48.112;16.280;2023-06-14T07:42:48;24.70;11.00
54788;DHT22;59598;48.112;16.280;2023-06-14T07:45:21;24.60;99.90
54788;DHT22;59598;48.112;16.280;2023-06-14T07:47:55;24.80;99.90
54788;DHT22;59598;48.112;16.280;2023-06-14T07:50:30;24.90;1.00
54788;DHT22;59598;48.112;16.280;2023-06-14T07:53:05;24.90;99.90
54788;DHT22;59598;48.112;16.280;2023-06-14T07:55:36;25.60;99.90
54788;DHT22;59598;48.112;16.280;2023-06-14T07:58:14;25.90;1.00
54788;DHT22;59598;48.112;16.280;2023-06-14T08:00:51;25.40;41.40
54788;DHT22;59598;48.112;16.280;2023-06-14T08:03:25;25.10;1.00
54788;DHT22;59598;48.112;16.280;2023-06-14T08:05:58;24.40;1.00
54788;DHT22;59598;48.112;16.280;2023-06-14T08:08:29;24.60;1.00
54788;DHT22;59598;48.112;16.280;2023-06-14T08:11:02;24.60;1.00
54788;DHT22;59598;48.112;16.280;2023-06-14T08:13:34;24.40;1.00
54788;DHT22;59598;48.112;16.280;2023-06-14T08:16:05;24.00;1.00
54788;DHT22;59598;48.112;16.280;2023-06-14T08:18:36;24.50;1.00
54788;DHT22;59598;48.112;16.280;2023-06-14T08:21:10;25.00;1.00
54788;DHT22;59598;48.112;16.280;2023-06-14T08:23:44;25.20;1.00
54788;DHT22;59598;48.112;16.280;2023-06-14T08:26:16;25.80;1.00
54788;DHT22;59598;48.112;16.280;2023-06-14T08:28:50;25.60;1.00
54788;DHT22;59598;48.112;16.280;2023-06-14T08:31:22;25.60;1.00
54788;DHT22;59598;48.112;16.280;2023-06-14T08:33:59;26.10;1.00
54788;DHT22;59598;48.112;16.280;2023-06-14T08:36:30;26.50;1.00
54788;DHT22;59598;48.112;16.280;2023-06-14T08:39:06;26.90;1.00
54788;DHT22;59598;48.112;16.280;2023-06-14T08:41:40;27.00;1.00
54788;DHT22;59598;48.112;16.280;2023-06-14T08:44:12;27.20;1.00
54788;DHT22;59598;48.112;16.280;2023-06-14T08:46:44;26.40;1.00
54788;DHT22;59598;48.112;16.280;2023-06-14T08:49:22;26.70;1.00
54788;DHT22;59598;48.112;16.280;2023-06-14T08:51:58;26.80;99.90
54788;DHT22;59598;48.112;16.280;2023-06-14T08:54:32;27.00;99.90
54788;DHT22;59598;48.112;16.280;2023-06-14T08:57:07;26.40;99.90
54788;DHT22;59598;48.112;16.280;2023-06-14T08:59:47;26.40;99.90
54788;DHT22;59598;48.112;16.280;2023-06-14T09:02:24;26.90;99.90
54788;DHT22;59598;48.112;16.280;2023-06-14T09:04:56;26.40;99.90
54788;DHT22;59598;48.112;16.280;2023-06-14T09:07:30;26.30;91.10
54788;DHT22;59598;48.112;16.280;2023-06-14T09:10:15;26.00;99.90
54788;DHT22;59598;48.112;16.280;2023-06-14T09:12:49;26.80;99.90
54788;DHT22;59598;48.112;16.280;2023-06-14T09:15:25;27.50;99.90
54788;DHT22;59598;48.112;16.280;2023-06-14T09:17:56;28.50;98.50
54788;DHT22;59598;48.112;16.280;2023-06-14T09:20:30;29.40;99.90
54788;DHT22;59598;48.112;16.280;2023-06-14T09:23:03;28.90;99.90
54788;DHT22;59598;48.112;16.280;2023-06-14T09:25:45;28.60;66.50
54788;DHT22;59598;48.112;16.280;2023-06-14T09:28:19;28.00;10.00
54788;DHT22;59598;48.112;16.280;2023-06-14T09:30:54;28.00;99.90
54788;DHT22;59598;48.112;16.280;2023-06-14T09:33:28;28.30;99.90
54788;DHT22;59598;48.112;16.280;2023-06-14T09:36:01;28.60;43.30
54788;DHT22;59598;48.112;16.280;2023-06-14T09:38:34;28.50;13.40
54788;DHT22;59598;48.112;16.280;2023-06-14T09:41:08;28.30;1.00
54788;DHT22;59598;48.112;16.280;2023-06-14T09:43:42;28.40;92.90
54788;DHT22;59598;48.112;16.280;2023-06-14T09:46:16;27.80;96.00
54788;DHT22;59598;48.112;16.280;2023-06-14T09:48:48;26.90;1.00
54788;DHT22;59598;48.112;16.280;2023-06-14T09:51:22;26.50;1.00
54788;DHT22;59598;48.112;16.280;2023-06-14T09:53:59;26.50;1.00
54788;DHT22;59598;48.112;16.280;2023-06-14T09:56:37;26.60;1.00
54788;DHT22;59598;48.112;16.280;2023-06-14T09:59:09;26.60;1.00
54788;DHT22;59598;48.112;16.280;2023-06-14T10:01:42;26.10;1.00
54788;DHT22;59598;48.112;16.280;2023-06-14T10:04:15;26.10;1.00
54788;DHT22;59598;48.112;16.280;2023-06-14T10:06:54;25.60;1.00
54788;DHT22;59598;48.112;16.280;2023-06-14T10:09:26;24.80;1.00
54788;DHT22;59598;48.112;16.280;2023-06-14T10:12:01;25.10;1.00
54788;DHT22;59598;48.112;16.280;2023-06-14T10:14:38;25.20;1.00
54788;DHT22;59598;48.112;16.280;2023-06-14T10:17:20;25.50;1.00
54788;DHT22;59598;48.112;16.280;2023-06-14T10:20:24;25.60;1.00
54788;DHT22;59598;48.112;16.280;2023-06-14T10:23:13;25.30;1.00
54788;DHT22;59598;48.112;16.280;2023-06-14T10:25:50;25.60;1.00
54788;DHT22;59598;48.112;16.280;2023-06-14T10:28:25;26.10;1.00
54788;DHT22;59598;48.112;16.280;2023-06-14T10:31:05;26.20;1.00
54788;DHT22;59598;48.112;16.280;2023-06-14T10:36:28;27.00;1.00
54788;DHT22;59598;48.112;16.280;2023-06-14T10:39:18;27.30;1.00
54788;DHT22;59598;48.112;16.280;2023-06-14T10:41:53;27.10;1.00
54788;DHT22;59598;48.112;16.280;2023-06-14T10:46:59;27.00;1.00
54788;DHT22;59598;48.112;16.280;2023-06-14T10:49:41;27.10;1.00
54788;DHT22;59598;48.112;16.280;2023-06-14T10:52:15;26.80;1.00
54788;DHT22;59598;48.112;16.280;2023-06-14T10:57:36;26.60;1.00
54788;DHT22;59598;48.112;16.280;2023-06-14T11:00:09;27.80;1.00
54788;DHT22;59598;48.112;16.280;2023-06-14T11:05:57;30.90;1.00
54788;DHT22;59598;48.112;16.280;2023-06-14T11:08:51;31.30;1.00
54788;DHT22;59598;48.112;16.280;2023-06-14T11:11:35;31.90;1.00
54788;DHT22;59598;48.112;16.280;2023-06-14T11:14:07;31.30;99.90
54788;DHT22;59598;48.112;16.280;2023-06-14T11:16:40;31.00;99.90
54788;DHT22;59598;48.112;16.280;2023-06-14T11:19:18;31.10;1.00
54788;DHT22;59598;48.112;16.280;2023-06-14T11:21:51;30.30;99.90
54788;DHT22;59598;48.112;16.280;2023-06-14T11:24:23;30.60;1.00
54788;DHT22;59598;48.112;16.280;2023-06-14T11:26:55;30.30;1.00
54788;DHT22;59598;48.112;16.280;2023-06-14T11:29:32;30.10;1.00
54788;DHT22;59598;48.112;16.280;2023-06-14T11:32:06;29.40;99.90
54788;DHT22;59598;48.112;16.280;2023-06-14T11:34:46;28.90;99.90
54788;DHT22;59598;48.112;16.280;2023-06-14T11:37:18;28.60;99.90
54788;DHT22;59598;48.112;16.280;2023-06-14T11:39:50;28.10;99.90
54788;DHT22;59598;48.112;16.280;2023-06-14T11:42:21;28.00;99.90
54788;DHT22;59598;48.112;16.280;2023-06-14T11:44:55;28.20;99.90
54788;DHT22;59598;48.112;16.280;2023-06-14T11:47:37;29.50;1.00
54788;DHT22;59598;48.112;16.280;2023-06-14T11:50:11;30.80;99.90
54788;DHT22;59598;48.112;16.280;2023-06-14T11:52:55;30.10;99.90
54788;DHT22;59598;48.112;16.280;2023-06-14T11:55:38;28.60;99.90
54788;DHT22;59598;48.112;16.280;2023-06-14T11:58:11;27.80;99.90
54788;DHT22;59598;48.112;16.280;2023-06-14T12:00:49;28.70;99.90
54788;DHT22;59598;48.112;16.280;2023-06-14T12:03:26;29.30;99.90
54788;DHT22;59598;48.112;16.280;2023-06-14T12:06:28;30.90;99.90
54788;DHT22;59598;48.112;16.280;2023-06-14T12:09:06;30.70;99.90
54788;DHT22;59598;48.112;16.280;2023-06-14T12:11:43;30.80;99.90
54788;DHT22;59598;48.112;16.280;2023-06-14T12:14:17;30.30;99.90
54788;DHT22;59598;48.112;16.280;2023-06-14T12:17:03;30.10;99.90
54788;DHT22;59598;48.112;16.280;2023-06-14T12:19:45;30.60;99.90
54788;DHT22;59598;48.112;16.280;2023-06-14T12:22:21;32.40;99.90
54788;DHT22;59598;48.112;16.280;2023-06-14T12:24:54;33.20;99.90
54788;DHT22;59598;48.112;16.280;2023-06-14T12:27:26;33.60;99.90
54788;DHT22;59598;48.112;16.280;2023-06-14T12:30:02;32.70;99.90
54788;DHT22;59598;48.112;16.280;2023-06-14T12:32:38;32.40;99.90
54788;DHT22;59598;48.112;16.280;2023-06-14T12:35:11;32.40;1.00
54788;DHT22;59598;48.112;16.280;2023-06-14T12:37:43;34.10;1.00
54788;DHT22;59598;48.112;16.280;2023-06-14T12:40:14;35.20;99.90
54788;DHT22;59598;48.112;16.280;2023-06-14T12:42:45;35.80;99.90
54788;DHT22;59598;48.112;16.280;2023-06-14T12:45:19;35.50;99.90
54788;DHT22;59598;48.112;16.280;2023-06-14T12:47:54;35.20;99.90
54788;DHT22;59598;48.112;16.280;2023-06-14T12:50:27;36.00;99.90
54788;DHT22;59598;48.112;16.280;2023-06-14T12:52:58;35.70;99.90
54788;DHT22;59598;48.112;16.280;2023-06-14T12:55:29;34.50;99.90
54788;DHT22;59598;48.112;16.280;2023-06-14T12:58:03;34.70;99.90
54788;DHT22;59598;48.112;16.280;2023-06-14T13:00:35;34.10;99.90
54788;DHT22;59598;48.112;16.280;2023-06-14T13:03:09;32.70;98.00
54788;DHT22;59598;48.112;16.280;2023-06-14T13:05:40;30.40;24.50
54788;DHT22;59598;48.112;16.280;2023-06-14T13:08:12;29.40;68.50
54788;DHT22;59598;48.112;16.280;2023-06-14T13:10:46;29.60;99.90
54788;DHT22;59598;48.112;16.280;2023-06-14T13:13:19;29.30;86.60
54788;DHT22;59598;48.112;16.280;2023-06-14T13:15:51;28.00;41.40
54788;DHT22;59598;48.112;16.280;2023-06-14T13:18:25;27.50;13.20
54788;DHT22;59598;48.112;16.280;2023-06-14T13:20:56;27.00;8.10
54788;DHT22;59598;48.112;16.280;2023-06-14T13:23:32;27.50;35.00
54788;DHT22;59598;48.112;16.280;2023-06-14T13:26:04;28.50;57.90
54788;DHT22;59598;48.112;16.280;2023-06-14T13:28:35;29.10;95.80
54788;DHT22;59598;48.112;16.280;2023-06-14T13:31:07;28.70;65.80
54788;DHT22;59598;48.112;16.280;2023-06-14T13:33:41;28.70;63.70
54788;DHT22;59598;48.112;16.280;2023-06-14T13:36:16;29.00;99.90
54788;DHT22;59598;48.112;16.280;2023-06-14T13:38:50;28.70;74.90
54788;DHT22;59598;48.112;16.280;2023-06-14T13:41:23;27.00;44.80
54788;DHT22;59598;48.112;16.280;2023-06-14T13:43:54;27.70;20.60
54788;DHT22;59598;48.112;16.280;2023-06-14T13:46:26;28.30;53.60
54788;DHT22;59598;48.112;16.280;2023-06-14T13:48:58;28.80;69.70
54788;DHT22;59598;48.112;16.280;2023-06-14T13:51:29;29.40;99.90
54788;DHT22;59598;48.112;16.280;2023-06-14T13:54:01;31.40;99.90
54788;DHT22;59598;48.112;16.280;2023-06-14T13:56:35;32.00;99.90
54788;DHT22;59598;48.112;16.280;2023-06-14T13:59:11;31.40;2.50
54788;DHT22;59598;48.112;16.280;2023-06-14T14:01:43;29.80;25.90
54788;DHT22;59598;48.112;16.280;2023-06-14T14:04:14;29.10;1.00
54788;DHT22;59598;48.112;16.280;2023-06-14T14:06:46;28.40;1.00
54788;DHT22;59598;48.112;16.280;2023-06-14T14:09:22;27.60;1.00
54788;DHT22;59598;48.112;16.280;2023-06-14T14:11:57;27.90;1.00
54788;DHT22;59598;48.112;16.280;2023-06-14T14:14:29;28.40;1.00
54788;DHT22;59598;48.112;16.280;2023-06-14T14:17:01;28.10;56.80
54788;DHT22;59598;48.112;16.280;2023-06-14T14:19:32;27.50;28.30
54788;DHT22;59598;48.112;16.280;2023-06-14T14:22:04;27.10;1.00
54788;DHT22;59598;48.112;16.280;2023-06-14T14:24:35;26.30;1.00
54788;DHT22;59598;48.112;16.280;2023-06-14T14:27:06;26.00;1.00
54788;DHT22;59598;48.112;16.280;2023-06-14T14:29:41;25.70;1.00
54788;DHT22;59598;48.112;16.280;2023-06-14T14:32:13;25.50;1.00
54788;DHT22;59598;48.112;16.280;2023-06-14T14:34:45;25.40;1.00
54788;DHT22;59598;48.112;16.280;2023-06-14T14:37:17;25.30;1.00
54788;DHT22;59598;48.112;16.280;2023-06-14T14:39:53;26.80;44.70
54788;DHT22;59598;48.112;16.280;2023-06-14T14:42:26;27.80;39.30
54788;DHT22;59598;48.112;16.280;2023-06-14T14:44:59;29.30;58.00
54788;DHT22;59598;48.112;16.280;2023-06-14T14:47:31;29.70;1.00
54788;DHT22;59598;48.112;16.280;2023-06-14T14:50:05;28.90;1.00
54788;DHT22;59598;48.112;16.280;2023-06-14T14:52:39;28.00;1.00
54788;DHT22;59598;48.112;16.280;2023-06-14T14:55:12;27.20;1.00
54788;DHT22;59598;48.112;16.280;2023-06-14T14:57:46;27.00;1.00
54788;DHT22;59598;48.112;16.280;2023-06-14T15:00:21;26.90;1.00
54788;DHT22;59598;48.112;16.280;2023-06-14T15:02:52;26.40;1.00
54788;DHT22;59598;48.112;16.280;2023-06-14T15:05:29;25.70;1.00
54788;DHT22;59598;48.112;16.280;2023-06-14T15:08:03;25.40;1.00
54788;DHT22;59598;48.112;16.280;2023-06-14T15:10:46;25.30;1.00
54788;DHT22;59598;48.112;16.280;2023-06-14T15:13:18;25.70;1.00
54788;DHT22;59598;48.112;16.280;2023-06-14T15:15:55;28.30;15.00
54788;DHT22;59598;48.112;16.280;2023-06-14T15:18:26;30.70;29.80
54788;DHT22;59598;48.112;16.280;2023-06-14T15:20:57;32.60;41.50
54788;DHT22;59598;48.112;16.280;2023-06-14T15:23:29;34.00;1.00
54788;DHT22;59598;48.112;16.280;2023-06-14T15:26:04;33.80;1.00
54788;DHT22;59598;48.112;16.280;2023-06-14T15:28:36;34.80;2.40
54788;DHT22;59598;48.112;16.280;2023-06-14T15:31:10;34.00;1.00
54788;DHT22;59598;48.112;16.280;2023-06-14T15:33:41;32.40;1.00
54788;DHT22;59598;48.112;16.280;2023-06-14T15:36:15;31.80;1.00
54788;DHT22;59598;48.112;16.280;2023-06-14T15:38:46;31.70;1.00
54788;DHT22;59598;48.112;16.280;2023-06-14T15:41:21;30.30;1.00
54788;DHT22;59598;48.112;16.280;2023-06-14T15:43:53;28.90;1.00
54788;DHT22;59598;48.112;16.280;2023-06-14T15:46:27;27.70;1.00
54788;DHT22;59598;48.112;16.280;2023-06-14T15:49:01;26.80;1.00
54788;DHT22;59598;48.112;16.280;2023-06-14T15:51:41;26.70;1.00
54788;DHT22;59598;48.112;16.280;2023-06-14T15:54:12;28.50;1.00
54788;DHT22;59598;48.112;16.280;2023-06-14T15:56:46;30.40;1.00
54788;DHT22;59598;48.112;16.280;2023-06-14T15:59:17;31.60;1.00
54788;DHT22;59598;48.112;16.280;2023-06-14T16:01:49;31.80;1.00
54788;DHT22;59598;48.112;16.280;2023-06-14T16:04:21;32.00;1.00
54788;DHT22;59598;48.112;16.280;2023-06-14T16:06:52;32.30;1.00
54788;DHT22;59598;48.112;16.280;2023-06-14T16:09:26;32.50;1.00
54788;DHT22;59598;48.112;16.280;2023-06-14T16:12:00;32.30;1.00
54788;DHT22;59598;48.112;16.280;2023-06-14T16:14:32;32.20;1.00
54788;DHT22;59598;48.112;16.280;2023-06-14T16:17:07;31.90;1.00
54788;DHT22;59598;48.112;16.280;2023-06-14T16:19:41;31.00;1.00
54788;DHT22;59598;48.112;16.280;2023-06-14T16:22:14;28.60;1.00